sensor_id;sensor_type;location;lat;lon;timestamp;temperature;humidity
6756;DHT22;3415;51.148;7.014;2023-09-19T00:02:06;15.20;1.00
6756;DHT22;3415;51.148;7.014;2023-09-19T00:04:34;15.10;1.00
6756;DHT22;3415;51.148;7.014;2023-09-19T00:07:05;15.20;1.00
6756;DHT22;3415;51.148;7.014;2023-09-19T00:09:32;15.10;1.00
6756;DHT22;3415;51.148;7.014;2023-09-19T00:12:03;15.10;1.00
6756;DHT22;3415;51.148;7.014;2023-09-19T00:14:30;15.10;1.00
6756;DHT22;3415;51.148;7.014;2023-09-19T00:16:59;15.10;1.00
6756;DHT22;3415;51.148;7.014;2023-09-19T00:19:32;15.10;1.00
6756;DHT22;3415;51.148;7.014;2023-09-19T00:21:59;15.00;1.00
6756;DHT22;3415;51.148;7.014;2023-09-19T00:24:26;15.00;1.00
6756;DHT22;3415;51.148;7.014;2023-09-19T00:26:53;15.00;1.00
6756;DHT22;3415;51.148;7.014;2023-09-19T00:29:21;15.00;1.00
6756;DHT22;3415;51.148;7.014;2023-09-19T00:31:49;15.00;1.00
6756;DHT22;3415;51.148;7.014;2023-09-19T00:34:15;15.00;1.00
6756;DHT22;3415;51.148;7.014;2023-09-19T00:36:44;15.00;1.00
6756;DHT22;3415;51.148;7.014;2023-09-19T00:39:10;14.90;1.00
6756;DHT22;3415;51.148;7.014;2023-09-19T00:41:37;14.90;1.00
6756;DHT22;3415;51.148;7.014;2023-09-19T00:44:04;14.90;1.00
6756;DHT22;3415;51.148;7.014;2023-09-19T00:46:32;14.90;1.00
6756;DHT22;3415;51.148;7.014;2023-09-19T00:48:59;14.90;1.00
6756;DHT22;3415;51.148;7.014;2023-09-19T00:51:26;14.90;1.00
6756;DHT22;3415;51.148;7.014;2023-09-19T00:53:55;15.00;1.00
6756;DHT22;3415;51.148;7.014;2023-09-19T00:56:22;15.00;1.00
6756;DHT22;3415;51.148;7.014;2023-09-19T00:58:49;15.00;1.00
6756;DHT22;3415;51.148;7.014;2023-09-19T01:01:16;15.00;1.00
6756;DHT22;3415;51.148;7.014;2023-09-19T01:03:44;15.00;1.00
6756;DHT22;3415;51.148;7.014;2023-09-19T01:06:11;15.00;1.00
6756;DHT22;3415;51.148;7.014;2023-09-19T01:08:38;15.00;1.00
6756;DHT22;3415;51.148;7.014;2023-09-19T01:11:13;15.00;1.00
6756;DHT22;3415;51.148;7.014;2023-09-19T01:13:53;15.00;1.00
6756;DHT22;3415;51.148;7.014;2023-09-19T01:16:32;15.00;1.00
6756;DHT22;3415;51.148;7.014;2023-09-19T01:19:11;14.90;1.00
6756;DHT22;3415;51.148;7.014;2023-09-19T01:21:48;14.90;1.00
6756;DHT22;3415;51.148;7.014;2023-09-19T01:24:42;15.00;1.00
6756;DHT22;3415;51.148;7.014;2023-09-19T01:30:21;15.10;1.00
6756;DHT22;3415;51.148;7.014;2023-09-19T01:32:52;15.10;1.00
6756;DHT22;3415;51.148;7.014;2023-09-19T01:35:19;15.10;1.00
6756;DHT22;3415;51.148;7.014;2023-09-19T01:37:46;15.10;1.00
6756;DHT22;3415;51.148;7.014;2023-09-19T01:40:15;15.10;1.00
6756;DHT22;3415;51.148;7.014;2023-09-19T01:42:45;15.00;1.00
6756;DHT22;3415;51.148;7.014;2023-09-19T01:45:26;15.00;1.00
6756;DHT22;3415;51.148;7.014;2023-09-19T01:47:55;15.00;1.00
6756;DHT22;3415;51.148;7.014;2023-09-19T01:50:30;15.00;1.00
6756;DHT22;3415;51.148;7.014;2023-09-19T01:53:04;15.00;1.00
6756;DHT22;3415;51.148;7.014;2023-09-19T01:55:36;15.00;1.00
6756;DHT22;3415;51.148;7.014;2023-09-19T01:58:07;15.00;1.00
6756;DHT22;3415;51.148;7.014;2023-09-19T02:00:38;15.00;1.00
6756;DHT22;3415;51.148;7.014;2023-09-19T02:03:08;15.00;1.00
6756;DHT22;3415;51.148;7.014;2023-09-19T02:05:35;15.00;1.00
6756;DHT22;3415;51.148;7.014;2023-09-19T02:08:03;15.00;1.00
6756;DHT22;3415;51.148;7.014;2023-09-19T02:10:29;15.00;1.00
6756;DHT22;3415;51.148;7.014;2023-09-19T02:12:56;14.90;1.00
6756;DHT22;3415;51.148;7.014;2023-09-19T02:15:24;14.90;1.00
6756;DHT22;3415;51.148;7.014;2023-09-19T02:17:52;14.90;1.00
6756;DHT22;3415;51.148;7.014;2023-09-19T02:20:18;14.90;1.00
6756;DHT22;3415;51.148;7.014;2023-09-19T02:22:46;14.90;1.00
6756;DHT22;3415;51.148;7.014;2023-09-19T02:25:15;15.00;1.00
6756;DHT22;3415;51.148;7.014;2023-09-19T02:27:43;15.00;1.00
6756;DHT22;3415;51.148;7.014;2023-09-19T02:30:11;15.00;1.00
6756;DHT22;3415;51.148;7.014;2023-09-19T02:32:41;14.90;1.00
6756;DHT22;3415;51.148;7.014;2023-09-19T02:35:09;15.00;1.00
6756;DHT22;3415;51.148;7.014;2023-09-19T02:37:37;14.90;1.00
6756;DHT22;3415;51.148;7.014;2023-09-19T02:40:05;14.90;1.00
6756;DHT22;3415;51.148;7.014;2023-09-19T02:42:44;14.80;1.00
6756;DHT22;3415;51.148;7.014;2023-09-19T02:45:14;14.80;1.00
6756;DHT22;3415;51.148;7.014;2023-09-19T02:47:42;14.80;1.00
6756;DHT22;3415;51.148;7.014;2023-09-19T02:50:10;14.80;1.00
6756;DHT22;3415;51.148;7.014;2023-09-19T02:52:38;14.80;1.00
6756;DHT22;3415;51.148;7.014;2023-09-19T02:55:05;14.80;1.00
6756;DHT22;3415;51.148;7.014;2023-09-19T02:57:35;14.80;1.00
6756;DHT22;3415;51.148;7.014;2023-09-19T03:00:06;14.70;1.00
6756;DHT22;3415;51.148;7.014;2023-09-19T03:02:35;14.60;1.00
6756;DHT22;3415;51.148;7.014;2023-09-19T03:05:04;14.70;1.00
6756;DHT22;3415;51.148;7.014;2023-09-19T03:07:32;14.70;1.00
6756;DHT22;3415;51.148;7.014;2023-09-19T03:09:59;14.70;1.00
6756;DHT22;3415;51.148;7.014;2023-09-19T03:12:26;14.60;1.00
6756;DHT22;3415;51.148;7.014;2023-09-19T03:14:53;14.60;1.00
6756;DHT22;3415;51.148;7.014;2023-09-19T03:17:21;14.50;1.00
6756;DHT22;3415;51.148;7.014;2023-09-19T03:19:47;14.50;1.00
6756;DHT22;3415;51.148;7.014;2023-09-19T03:22:14;14.40;1.00
6756;DHT22;3415;51.148;7.014;2023-09-19T03:24:43;14.40;1.00
6756;DHT22;3415;51.148;7.014;2023-09-19T03:27:10;14.30;1.00
6756;DHT22;3415;51.148;7.014;2023-09-19T03:29:39;14.30;1.00
6756;DHT22;3415;51.148;7.014;2023-09-19T03:32:06;14.30;1.00
6756;DHT22;3415;51.148;7.014;2023-09-19T03:34:36;14.30;1.00
6756;DHT22;3415;51.148;7.014;2023-09-19T03:37:04;14.30;1.00
6756;DHT22;3415;51.148;7.014;2023-09-19T03:39:32;14.30;1.00
6756;DHT22;3415;51.148;7.014;2023-09-19T03:42:00;14.30;1.00
6756;DHT22;3415;51.148;7.014;2023-09-19T03:44:28;14.30;1.00
6756;DHT22;3415;51.148;7.014;2023-09-19T03:46:55;14.20;1.00
6756;DHT22;3415;51.148;7.014;2023-09-19T03:49:22;14.20;1.00
6756;DHT22;3415;51.148;7.014;2023-09-19T03:51:49;14.20;1.00
6756;DHT22;3415;51.148;7.014;2023-09-19T03:56:45;14.10;1.00
6756;DHT22;3415;51.148;7.014;2023-09-19T03:59:13;14.20;1.00
6756;DHT22;3415;51.148;7.014;2023-09-19T04:01:40;14.20;1.00
6756;DHT22;3415;51.148;7.014;2023-09-19T04:04:07;14.20;1.00
6756;DHT22;3415;51.148;7.014;2023-09-19T04:06:34;14.10;1.00
6756;DHT22;3415;51.148;7.014;2023-09-19T04:09:01;14.10;1.00
6756;DHT22;3415;51.148;7.014;2023-09-19T04:11:29;14.10;1.00
6756;DHT22;3415;51.148;7.014;2023-09-19T04:13:56;14.10;1.00
6756;DHT22;3415;51.148;7.014;2023-09-19T04:16:24;14.10;1.00
6756;DHT22;3415;51.148;7.014;2023-09-19T04:18:51;14.10;1.00
6756;DHT22;3415;51.148;7.014;2023-09-19T04:21:18;14.10;1.00
6756;DHT22;3415;51.148;7.014;2023-09-19T04:23:45;14.00;1.00
6756;DHT22;3415;51.148;7.014;2023-09-19T04:26:11;14.00;1.00
6756;DHT22;3415;51.148;7.014;2023-09-19T04:28:39;14.00;1.00
6756;DHT22;3415;51.148;7.014;2023-09-19T04:31:06;14.00;1.00
6756;DHT22;3415;51.148;7.014;2023-09-19T04:33:35;14.00;1.00
6756;DHT22;3415;51.148;7.014;2023-09-19T04:36:02;14.00;1.00
6756;DHT22;3415;51.148;7.014;2023-09-19T04:38:30;13.90;1.00
6756;DHT22;3415;51.148;7.014;2023-09-19T04:40:58;13.90;1.00
6756;DHT22;3415;51.148;7.014;2023-09-19T04:43:25;13.90;1.00
6756;DHT22;3415;51.148;7.014;2023-09-19T04:45:54;13.90;1.00
6756;DHT22;3415;51.148;7.014;2023-09-19T04:48:21;13.90;1.00
6756;DHT22;3415;51.148;7.014;2023-09-19T04:50:51;13.90;1.00
6756;DHT22;3415;51.148;7.014;2023-09-19T04:53:19;13.90;1.00
6756;DHT22;3415;51.148;7.014;2023-09-19T04:55:50;13.90;1.00
6756;DHT22;3415;51.148;7.014;2023-09-19T04:58:18;13.90;1.00
6756;DHT22;3415;51.148;7.014;2023-09-19T05:00:45;13.90;1.00
6756;DHT22;3415;51.148;7.014;2023-09-19T05:03:12;13.90;1.00
6756;DHT22;3415;51.148;7.014;2023-09-19T05:05:39;13.90;1.00
6756;DHT22;3415;51.148;7.014;2023-09-19T05:08:09;13.90;1.00
6756;DHT22;3415;51.148;7.014;2023-09-19T05:10:36;13.90;1.00
6756;DHT22;3415;51.148;7.014;2023-09-19T05:13:03;13.90;1.00
6756;DHT22;3415;51.148;7.014;2023-09-19T05:15:30;13.90;1.00
6756;DHT22;3415;51.148;7.014;2023-09-19T05:17:57;13.90;1.00
6756;DHT22;3415;51.148;7.014;2023-09-19T05:20:24;13.80;1.00
6756;DHT22;3415;51.148;7.014;2023-09-19T05:22:58;13.90;1.00
6756;DHT22;3415;51.148;7.014;2023-09-19T05:25:28;13.90;1.00
6756;DHT22;3415;51.148;7.014;2023-09-19T05:27:57;13.90;1.00
6756;DHT22;3415;51.148;7.014;2023-09-19T05:30:24;13.80;1.00
6756;DHT22;3415;51.148;7.014;2023-09-19T05:32:53;13.80;1.00
6756;DHT22;3415;51.148;7.014;2023-09-19T05:35:20;13.80;1.00
6756;DHT22;3415;51.148;7.014;2023-09-19T05:37:48;13.90;1.00
6756;DHT22;3415;51.148;7.014;2023-09-19T05:40:16;13.90;1.00
6756;DHT22;3415;51.148;7.014;2023-09-19T05:42:44;14.00;1.00
6756;DHT22;3415;51.148;7.014;2023-09-19T05:45:11;14.00;1.00
6756;DHT22;3415;51.148;7.014;2023-09-19T05:47:37;14.10;1.00
6756;DHT22;3415;51.148;7.014;2023-09-19T05:50:06;14.10;1.00
6756;DHT22;3415;51.148;7.014;2023-09-19T05:52:34;14.20;1.00
6756;DHT22;3415;51.148;7.014;2023-09-19T05:55:03;14.30;1.00
6756;DHT22;3415;51.148;7.014;2023-09-19T05:57:30;14.30;1.00
6756;DHT22;3415;51.148;7.014;2023-09-19T05:59:59;14.30;1.00
6756;DHT22;3415;51.148;7.014;2023-09-19T06:02:26;14.40;1.00
6756;DHT22;3415;51.148;7.014;2023-09-19T06:07:22;14.50;1.00
6756;DHT22;3415;51.148;7.014;2023-09-19T06:09:51;14.50;1.00
6756;DHT22;3415;51.148;7.014;2023-09-19T06:12:19;14.50;1.00
6756;DHT22;3415;51.148;7.014;2023-09-19T06:14:45;14.50;1.00
6756;DHT22;3415;51.148;7.014;2023-09-19T06:17:15;14.60;1.00
6756;DHT22;3415;51.148;7.014;2023-09-19T06:19:42;14.60;1.00
6756;DHT22;3415;51.148;7.014;2023-09-19T06:22:15;14.60;1.00
6756;DHT22;3415;51.148;7.014;2023-09-19T06:24:41;14.70;1.00
6756;DHT22;3415;51.148;7.014;2023-09-19T06:27:08;14.60;1.00
6756;DHT22;3415;51.148;7.014;2023-09-19T06:29:35;14.70;1.00
6756;DHT22;3415;51.148;7.014;2023-09-19T06:32:07;14.70;1.00
6756;DHT22;3415;51.148;7.014;2023-09-19T06:34:35;14.80;1.00
6756;DHT22;3415;51.148;7.014;2023-09-19T06:37:03;14.80;1.00
6756;DHT22;3415;51.148;7.014;2023-09-19T06:39:31;14.90;1.00
6756;DHT22;3415;51.148;7.014;2023-09-19T06:41:58;14.90;1.00
6756;DHT22;3415;51.148;7.014;2023-09-19T06:44:27;14.90;1.00
6756;DHT22;3415;51.148;7.014;2023-09-19T06:46:55;14.90;1.00
6756;DHT22;3415;51.148;7.014;2023-09-19T06:49:20;15.00;1.00
6756;DHT22;3415;51.148;7.014;2023-09-19T06:51:49;15.00;1.00
6756;DHT22;3415;51.148;7.014;2023-09-19T06:54:15;15.10;1.00
6756;DHT22;3415;51.148;7.014;2023-09-19T06:56:43;15.10;1.00
6756;DHT22;3415;51.148;7.014;2023-09-19T06:59:10;15.20;1.00
6756;DHT22;3415;51.148;7.014;2023-09-19T07:01:40;15.20;1.00
6756;DHT22;3415;51.148;7.014;2023-09-19T07:04:07;15.30;1.00
6756;DHT22;3415;51.148;7.014;2023-09-19T07:06:33;15.50;1.00
6756;DHT22;3415;51.148;7.014;2023-09-19T07:09:02;15.50;1.00
6756;DHT22;3415;51.148;7.014;2023-09-19T07:11:29;15.50;1.00
6756;DHT22;3415;51.148;7.014;2023-09-19T07:13:57;15.70;1.00
6756;DHT22;3415;51.148;7.014;2023-09-19T07:16:24;15.70;1.00
6756;DHT22;3415;51.148;7.014;2023-09-19T07:18:54;15.70;1.00
6756;DHT22;3415;51.148;7.014;2023-09-19T07:21:22;15.80;1.00
6756;DHT22;3415;51.148;7.014;2023-09-19T07:23:48;16.20;1.00
6756;DHT22;3415;51.148;7.014;2023-09-19T07:26:16;16.20;1.00
6756;DHT22;3415;51.148;7.014;2023-09-19T07:28:43;16.20;1.00
6756;DHT22;3415;51.148;7.014;2023-09-19T07:31:10;16.20;1.00
6756;DHT22;3415;51.148;7.014;2023-09-19T07:33:38;16.30;1.00
6756;DHT22;3415;51.148;7.014;2023-09-19T07:36:05;16.30;1.00
6756;DHT22;3415;51.148;7.014;2023-09-19T07:38:36;16.50;1.00
6756;DHT22;3415;51.148;7.014;2023-09-19T07:41:03;16.80;1.00
6756;DHT22;3415;51.148;7.014;2023-09-19T07:43:32;16.80;1.00
6756;DHT22;3415;51.148;7.014;2023-09-19T07:46:03;16.90;1.00
6756;DHT22;3415;51.148;7.014;2023-09-19T07:48:31;16.80;1.00
6756;DHT22;3415;51.148;7.014;2023-09-19T07:51:02;17.00;1.00
6756;DHT22;3415;51.148;7.014;2023-09-19T07:53:29;17.20;1.00
6756;DHT22;3415;51.148;7.014;2023-09-19T07:56:04;17.20;1.00
6756;DHT22;3415;51.148;7.014;2023-09-19T07:58:32;17.40;1.00
6756;DHT22;3415;51.148;7.014;2023-09-19T08:01:04;17.40;1.00
6756;DHT22;3415;51.148;7.014;2023-09-19T08:03:31;18.00;1.00
6756;DHT22;3415;51.148;7.014;2023-09-19T08:05:58;18.20;1.00
6756;DHT22;3415;51.148;7.014;2023-09-19T08:08:26;18.00;1.00
6756;DHT22;3415;51.148;7.014;2023-09-19T08:10:53;17.90;1.00
6756;DHT22;3415;51.148;7.014;2023-09-19T08:13:22;17.90;1.00
6756;DHT22;3415;51.148;7.014;2023-09-19T08:15:50;17.70;1.00
6756;DHT22;3415;51.148;7.014;2023-09-19T08:18:18;18.00;1.00
6756;DHT22;3415;51.148;7.014;2023-09-19T08:20:49;18.40;1.00
6756;DHT22;3415;51.148;7.014;2023-09-19T08:23:17;18.40;1.00
6756;DHT22;3415;51.148;7.014;2023-09-19T08:25:45;18.70;1.00
6756;DHT22;3415;51.148;7.014;2023-09-19T08:28:12;19.10;1.00
6756;DHT22;3415;51.148;7.014;2023-09-19T08:30:43;19.10;1.00
6756;DHT22;3415;51.148;7.014;2023-09-19T08:33:12;18.90;1.00
6756;DHT22;3415;51.148;7.014;2023-09-19T08:35:40;19.00;1.00
6756;DHT22;3415;51.148;7.014;2023-09-19T08:38:09;19.00;1.00
6756;DHT22;3415;51.148;7.014;2023-09-19T08:40:38;19.70;1.00
6756;DHT22;3415;51.148;7.014;2023-09-19T08:43:06;19.60;1.00
6756;DHT22;3415;51.148;7.014;2023-09-19T08:45:33;19.80;1.00
6756;DHT22;3415;51.148;7.014;2023-09-19T08:48:08;19.80;1.00
6756;DHT22;3415;51.148;7.014;2023-09-19T08:50:46;19.90;1.00
6756;DHT22;3415;51.148;7.014;2023-09-19T08:53:19;19.90;1.00
6756;DHT22;3415;51.148;7.014;2023-09-19T08:55:51;20.30;99.90
6756;DHT22;3415;51.148;7.014;2023-09-19T08:58:20;20.60;99.90
6756;DHT22;3415;51.148;7.014;2023-09-19T09:00:49;20.20;99.90
6756;DHT22;3415;51.148;7.014;2023-09-19T09:03:18;20.70;99.90
6756;DHT22;3415;51.148;7.014;2023-09-19T09:05:50;21.10;99.90
6756;DHT22;3415;51.148;7.014;2023-09-19T09:08:19;21.80;99.90
6756;DHT22;3415;51.148;7.014;2023-09-19T09:10:47;22.20;99.90
6756;DHT22;3415;51.148;7.014;2023-09-19T09:13:14;22.10;99.90
6756;DHT22;3415;51.148;7.014;2023-09-19T09:15:41;22.80;99.90
6756;DHT22;3415;51.148;7.014;2023-09-19T09:18:10;22.90;99.90
6756;DHT22;3415;51.148;7.014;2023-09-19T09:20:37;22.10;99.90
6756;DHT22;3415;51.148;7.014;2023-09-19T09:23:05;22.10;99.90
6756;DHT22;3415;51.148;7.014;2023-09-19T09:25:48;22.40;99.90
6756;DHT22;3415;51.148;7.014;2023-09-19T09:28:20;22.40;99.90
6756;DHT22;3415;51.148;7.014;2023-09-19T09:30:47;22.90;99.90
6756;DHT22;3415;51.148;7.014;2023-09-19T09:33:14;24.20;99.90
6756;DHT22;3415;51.148;7.014;2023-09-19T09:35:48;24.80;99.90
6756;DHT22;3415;51.148;7.014;2023-09-19T09:38:19;24.90;99.90
6756;DHT22;3415;51.148;7.014;2023-09-19T09:40:47;24.20;99.90
6756;DHT22;3415;51.148;7.014;2023-09-19T09:43:31;24.60;99.90
6756;DHT22;3415;51.148;7.014;2023-09-19T09:46:12;25.20;99.90
6756;DHT22;3415;51.148;7.014;2023-09-19T09:49:23;24.60;99.90
6756;DHT22;3415;51.148;7.014;2023-09-19T09:52:00;24.10;99.90
6756;DHT22;3415;51.148;7.014;2023-09-19T09:54:32;24.40;99.90
6756;DHT22;3415;51.148;7.014;2023-09-19T09:57:08;24.60;99.90
6756;DHT22;3415;51.148;7.014;2023-09-19T09:59:50;24.30;99.90
6756;DHT22;3415;51.148;7.014;2023-09-19T10:02:19;25.10;99.90
6756;DHT22;3415;51.148;7.014;2023-09-19T10:04:54;25.60;99.90
6756;DHT22;3415;51.148;7.014;2023-09-19T10:07:34;25.40;99.90
6756;DHT22;3415;51.148;7.014;2023-09-19T10:10:06;25.40;99.90
6756;DHT22;3415;51.148;7.014;2023-09-19T10:12:44;26.00;99.90
6756;DHT22;3415;51.148;7.014;2023-09-19T10:15:16;25.50;99.90
6756;DHT22;3415;51.148;7.014;2023-09-19T10:17:46;25.80;99.90
6756;DHT22;3415;51.148;7.014;2023-09-19T10:20:15;26.00;99.90
6756;DHT22;3415;51.148;7.014;2023-09-19T10:23:00;25.10;99.90
6756;DHT22;3415;51.148;7.014;2023-09-19T10:25:29;24.30;99.90
6756;DHT22;3415;51.148;7.014;2023-09-19T10:27:57;24.30;99.90
6756;DHT22;3415;51.148;7.014;2023-09-19T10:30:27;22.70;99.90
6756;DHT22;3415;51.148;7.014;2023-09-19T10:33:00;22.40;99.90
6756;DHT22;3415;51.148;7.014;2023-09-19T10:35:27;22.20;99.90
6756;DHT22;3415;51.148;7.014;2023-09-19T10:37:57;22.30;99.90
6756;DHT22;3415;51.148;7.014;2023-09-19T10:40:25;21.90;99.90
6756;DHT22;3415;51.148;7.014;2023-09-19T10:43:01;22.10;99.90
6756;DHT22;3415;51.148;7.014;2023-09-19T10:45:31;22.70;99.90
6756;DHT22;3415;51.148;7.014;2023-09-19T10:47:58;22.50;99.90
6756;DHT22;3415;51.148;7.014;2023-09-19T10:50:26;22.70;99.90
6756;DHT22;3415;51.148;7.014;2023-09-19T10:53:00;23.70;99.90
6756;DHT22;3415;51.148;7.014;2023-09-19T10:55:31;24.70;99.90
6756;DHT22;3415;51.148;7.014;2023-09-19T10:58:00;25.20;99.90
6756;DHT22;3415;51.148;7.014;2023-09-19T11:00:30;25.20;99.90
6756;DHT22;3415;51.148;7.014;2023-09-19T11:03:19;23.80;99.90
6756;DHT22;3415;51.148;7.014;2023-09-19T11:06:10;23.70;99.90
6756;DHT22;3415;51.148;7.014;2023-09-19T11:08:55;23.40;99.90
6756;DHT22;3415;51.148;7.014;2023-09-19T11:11:48;24.00;99.90
6756;DHT22;3415;51.148;7.014;2023-09-19T11:14:40;24.80;99.90
6756;DHT22;3415;51.148;7.014;2023-09-19T11:17:41;25.60;99.90
6756;DHT22;3415;51.148;7.014;2023-09-19T11:20:20;26.60;99.90
6756;DHT22;3415;51.148;7.014;2023-09-19T11:23:18;26.40;99.90
6756;DHT22;3415;51.148;7.014;2023-09-19T11:25:49;26.60;99.90
6756;DHT22;3415;51.148;7.014;2023-09-19T11:28:32;25.90;99.90
6756;DHT22;3415;51.148;7.014;2023-09-19T11:34:43;25.50;99.90
6756;DHT22;3415;51.148;7.014;2023-09-19T11:40:33;26.80;99.90
6756;DHT22;3415;51.148;7.014;2023-09-19T11:46:09;27.80;99.90
6756;DHT22;3415;51.148;7.014;2023-09-19T11:48:39;26.40;99.90
6756;DHT22;3415;51.148;7.014;2023-09-19T11:51:15;27.10;99.90
6756;DHT22;3415;51.148;7.014;2023-09-19T11:53:46;27.10;99.90
6756;DHT22;3415;51.148;7.014;2023-09-19T11:56:16;27.10;99.90
6756;DHT22;3415;51.148;7.014;2023-09-19T11:58:44;27.60;99.90
6756;DHT22;3415;51.148;7.014;2023-09-19T12:01:14;27.70;99.90
6756;DHT22;3415;51.148;7.014;2023-09-19T12:03:47;25.60;99.90
6756;DHT22;3415;51.148;7.014;2023-09-19T12:06:15;24.10;99.90
6756;DHT22;3415;51.148;7.014;2023-09-19T12:08:43;23.00;99.90
6756;DHT22;3415;51.148;7.014;2023-09-19T12:11:13;22.50;99.90
6756;DHT22;3415;51.148;7.014;2023-09-19T12:13:42;22.00;99.90
6756;DHT22;3415;51.148;7.014;2023-09-19T12:16:13;22.00;99.90
6756;DHT22;3415;51.148;7.014;2023-09-19T12:18:41;21.80;99.90
6756;DHT22;3415;51.148;7.014;2023-09-19T12:21:22;21.30;99.90
6756;DHT22;3415;51.148;7.014;2023-09-19T12:24:03;21.10;99.90
6756;DHT22;3415;51.148;7.014;2023-09-19T12:26:38;21.20;99.90
6756;DHT22;3415;51.148;7.014;2023-09-19T12:29:11;21.40;99.90
6756;DHT22;3415;51.148;7.014;2023-09-19T12:31:49;21.30;99.90
6756;DHT22;3415;51.148;7.014;2023-09-19T12:34:20;21.10;99.90
6756;DHT22;3415;51.148;7.014;2023-09-19T12:36:48;21.10;99.90
6756;DHT22;3415;51.148;7.014;2023-09-19T12:39:24;21.10;99.90
6756;DHT22;3415;51.148;7.014;2023-09-19T12:41:52;20.90;99.90
6756;DHT22;3415;51.148;7.014;2023-09-19T12:44:20;20.90;99.90
6756;DHT22;3415;51.148;7.014;2023-09-19T12:46:48;20.90;99.90
6756;DHT22;3415;51.148;7.014;2023-09-19T12:49:15;21.00;99.90
6756;DHT22;3415;51.148;7.014;2023-09-19T12:51:44;21.20;99.90
6756;DHT22;3415;51.148;7.014;2023-09-19T12:54:11;20.80;99.90
6756;DHT22;3415;51.148;7.014;2023-09-19T12:56:41;20.90;99.90
6756;DHT22;3415;51.148;7.014;2023-09-19T12:59:12;20.80;99.90
6756;DHT22;3415;51.148;7.014;2023-09-19T13:01:39;20.90;99.90
6756;DHT22;3415;51.148;7.014;2023-09-19T13:04:12;20.90;99.90
6756;DHT22;3415;51.148;7.014;2023-09-19T13:06:41;21.00;99.90
6756;DHT22;3415;51.148;7.014;2023-09-19T13:09:09;21.00;99.90
6756;DHT22;3415;51.148;7.014;2023-09-19T13:11:37;20.90;99.90
6756;DHT22;3415;51.148;7.014;2023-09-19T13:14:19;21.10;99.90
6756;DHT22;3415;51.148;7.014;2023-09-19T13:16:57;21.20;99.90
6756;DHT22;3415;51.148;7.014;2023-09-19T13:19:39;21.10;99.90
6756;DHT22;3415;51.148;7.014;2023-09-19T13:22:37;21.30;99.90
6756;DHT22;3415;51.148;7.014;2023-09-19T13:25:05;21.30;99.90
6756;DHT22;3415;51.148;7.014;2023-09-19T13:27:33;21.20;99.90
6756;DHT22;3415;51.148;7.014;2023-09-19T13:30:00;21.20;99.90
6756;DHT22;3415;51.148;7.014;2023-09-19T13:32:27;21.10;99.90
6756;DHT22;3415;51.148;7.014;2023-09-19T13:34:55;20.90;99.90
6756;DHT22;3415;51.148;7.014;2023-09-19T13:37:23;20.80;99.90
6756;DHT22;3415;51.148;7.014;2023-09-19T13:39:50;21.00;99.90
6756;DHT22;3415;51.148;7.014;2023-09-19T13:42:16;20.70;99.90
6756;DHT22;3415;51.148;7.014;2023-09-19T13:44:44;20.60;99.90
6756;DHT22;3415;51.148;7.014;2023-09-19T13:47:11;20.90;99.90
6756;DHT22;3415;51.148;7.014;2023-09-19T13:49:39;21.20;99.90
6756;DHT22;3415;51.148;7.014;2023-09-19T13:52:07;21.30;99.90
6756;DHT22;3415;51.148;7.014;2023-09-19T13:54:35;21.20;99.90
6756;DHT22;3415;51.148;7.014;2023-09-19T13:57:01;21.10;99.90
6756;DHT22;3415;51.148;7.014;2023-09-19T13:59:28;20.90;99.90
6756;DHT22;3415;51.148;7.014;2023-09-19T14:01:56;20.90;99.90
6756;DHT22;3415;51.148;7.014;2023-09-19T14:04:23;20.90;99.90
6756;DHT22;3415;51.148;7.014;2023-09-19T14:09:18;20.70;99.90
6756;DHT22;3415;51.148;7.014;2023-09-19T14:11:46;20.60;99.90
6756;DHT22;3415;51.148;7.014;2023-09-19T14:14:13;20.60;99.90
6756;DHT22;3415;51.148;7.014;2023-09-19T14:16:40;20.50;99.90
6756;DHT22;3415;51.148;7.014;2023-09-19T14:19:07;20.40;99.90
6756;DHT22;3415;51.148;7.014;2023-09-19T14:21:34;20.40;99.90
6756;DHT22;3415;51.148;7.014;2023-09-19T14:24:02;20.40;99.90
6756;DHT22;3415;51.148;7.014;2023-09-19T14:26:30;20.30;99.90
6756;DHT22;3415;51.148;7.014;2023-09-19T14:28:57;20.20;99.90
6756;DHT22;3415;51.148;7.014;2023-09-19T14:31:24;20.30;99.90
6756;DHT22;3415;51.148;7.014;2023-09-19T14:33:53;20.40;99.90
6756;DHT22;3415;51.148;7.014;2023-09-19T14:36:21;20.40;99.90
6756;DHT22;3415;51.148;7.014;2023-09-19T14:38:48;20.50;99.90
6756;DHT22;3415;51.148;7.014;2023-09-19T14:41:19;20.70;99.90
6756;DHT22;3415;51.148;7.014;2023-09-19T14:43:47;20.70;99.90
6756;DHT22;3415;51.148;7.014;2023-09-19T14:46:14;20.70;99.90
6756;DHT22;3415;51.148;7.014;2023-09-19T14:48:41;20.80;99.90
6756;DHT22;3415;51.148;7.014;2023-09-19T14:51:08;20.80;99.90
6756;DHT22;3415;51.148;7.014;2023-09-19T14:53:35;20.80;99.90
6756;DHT22;3415;51.148;7.014;2023-09-19T14:56:03;20.80;99.90
6756;DHT22;3415;51.148;7.014;2023-09-19T14:58:30;20.80;99.90
6756;DHT22;3415;51.148;7.014;2023-09-19T15:01:04;20.90;99.90
6756;DHT22;3415;51.148;7.014;2023-09-19T15:03:32;20.80;99.90
6756;DHT22;3415;51.148;7.014;2023-09-19T15:05:59;20.60;99.90
6756;DHT22;3415;51.148;7.014;2023-09-19T15:08:27;20.60;99.90
6756;DHT22;3415;51.148;7.014;2023-09-19T15:10:53;20.20;99.90
6756;DHT22;3415;51.148;7.014;2023-09-19T15:13:21;20.10;99.90
6756;DHT22;3415;51.148;7.014;2023-09-19T15:15:49;20.00;99.90
6756;DHT22;3415;51.148;7.014;2023-09-19T15:18:17;20.00;99.90
6756;DHT22;3415;51.148;7.014;2023-09-19T15:20:44;19.90;99.90
6756;DHT22;3415;51.148;7.014;2023-09-19T15:23:11;19.90;99.90
6756;DHT22;3415;51.148;7.014;2023-09-19T15:25:38;19.90;99.90
6756;DHT22;3415;51.148;7.014;2023-09-19T15:28:06;19.70;99.90
6756;DHT22;3415;51.148;7.014;2023-09-19T15:30:37;19.60;99.90
6756;DHT22;3415;51.148;7.014;2023-09-19T15:33:04;19.50;99.90
6756;DHT22;3415;51.148;7.014;2023-09-19T15:35:32;19.50;99.90
6756;DHT22;3415;51.148;7.014;2023-09-19T15:37:59;19.50;99.90
6756;DHT22;3415;51.148;7.014;2023-09-19T15:40:26;19.50;99.90
6756;DHT22;3415;51.148;7.014;2023-09-19T15:42:54;19.60;99.90
6756;DHT22;3415;51.148;7.014;2023-09-19T15:45:21;19.60;99.90
6756;DHT22;3415;51.148;7.014;2023-09-19T15:47:48;19.50;99.90
6756;DHT22;3415;51.148;7.014;2023-09-19T15:50:15;19.40;99.90
6756;DHT22;3415;51.148;7.014;2023-09-19T15:52:44;19.40;99.90
6756;DHT22;3415;51.148;7.014;2023-09-19T15:55:11;19.40;99.90
6756;DHT22;3415;51.148;7.014;2023-09-19T15:57:38;19.40;99.90
6756;DHT22;3415;51.148;7.014;2023-09-19T16:00:07;19.40;99.90
6756;DHT22;3415;51.148;7.014;2023-09-19T16:02:38;19.50;99.90
6756;DHT22;3415;51.148;7.014;2023-09-19T16:05:05;19.60;99.90
6756;DHT22;3415;51.148;7.014;2023-09-19T16:07:33;19.50;99.90
6756;DHT22;3415;51.148;7.014;2023-09-19T16:10:01;19.60;99.90
6756;DHT22;3415;51.148;7.014;2023-09-19T16:12:28;19.70;99.90
6756;DHT22;3415;51.148;7.014;2023-09-19T16:14:56;19.60;99.90
6756;DHT22;3415;51.148;7.014;2023-09-19T16:17:22;19.50;99.90
6756;DHT22;3415;51.148;7.014;2023-09-19T16:19:49;19.60;99.90
6756;DHT22;3415;51.148;7.014;2023-09-19T16:22:16;19.50;99.90
6756;DHT22;3415;51.148;7.014;2023-09-19T16:24:43;19.50;99.90
6756;DHT22;3415;51.148;7.014;2023-09-19T16:27:11;19.50;99.90
6756;DHT22;3415;51.148;7.014;2023-09-19T16:29:38;19.50;99.90
6756;DHT22;3415;51.148;7.014;2023-09-19T16:32:05;19.40;99.90
6756;DHT22;3415;51.148;7.014;2023-09-19T16:34:32;19.40;99.90
6756;DHT22;3415;51.148;7.014;2023-09-19T16:37:00;19.40;99.90
6756;DHT22;3415;51.148;7.014;2023-09-19T16:39:27;19.30;99.90
6756;DHT22;3415;51.148;7.014;2023-09-19T16:41:53;19.30;99.90
6756;DHT22;3415;51.148;7.014;2023-09-19T16:44:21;19.30;99.90
6756;DHT22;3415;51.148;7.014;2023-09-19T16:46:48;19.40;99.90